sensor_id;sensor_type;location;lat;lon;timestamp;P1;P4;P2;P0;N10;N4;N25;N1;N05;TS
76258;SPS30;65075;48.390;17.598;2023-12-22T00:00:09;0.58;0.57;0.56;0.53;4.20;4.20;4.19;4.18;3.63;0.51
76258;SPS30;65075;48.390;17.598;2023-12-22T00:02:36;0.84;0.84;0.83;0.77;6.14;6.14;6.14;6.12;5.32;0.50
76258;SPS30;65075;48.390;17.598;2023-12-22T00:05:03;0.93;0.92;0.91;0.84;6.74;6.74;6.73;6.71;5.83;0.51
76258;SPS30;65075;48.390;17.598;2023-12-22T00:07:31;0.68;0.68;0.67;0.62;4.93;4.93;4.92;4.90;4.26;0.53
76258;SPS30;65075;48.390;17.598;2023-12-22T00:09:58;0.60;0.59;0.58;0.54;4.31;4.30;4.30;4.28;3.71;0.53
76258;SPS30;65075;48.390;17.598;2023-12-22T00:12:24;0.65;0.64;0.63;0.57;4.59;4.58;4.58;4.56;3.94;0.55
76258;SPS30;65075;48.390;17.598;2023-12-22T00:14:51;0.60;0.59;0.57;0.52;4.17;4.17;4.16;4.14;3.58;0.56
76258;SPS30;65075;48.390;17.598;2023-12-22T00:17:18;0.67;0.66;0.64;0.58;4.64;4.64;4.63;4.60;3.98;0.56
76258;SPS30;65075;48.390;17.598;2023-12-22T00:19:44;0.65;0.64;0.63;0.57;4.54;4.54;4.53;4.50;3.89;0.57
76258;SPS30;65075;48.390;17.598;2023-12-22T00:22:11;0.73;0.72;0.70;0.63;5.05;5.05;5.05;5.01;4.33;0.57
76258;SPS30;65075;48.390;17.598;2023-12-22T00:24:38;0.66;0.64;0.62;0.57;4.53;4.53;4.52;4.49;3.88;0.57
76258;SPS30;65075;48.390;17.598;2023-12-22T00:27:06;0.43;0.42;0.40;0.36;2.91;2.91;2.91;2.88;2.49;0.58
76258;SPS30;65075;48.390;17.598;2023-12-22T00:29:33;0.41;0.40;0.39;0.35;2.81;2.81;2.81;2.79;2.41;0.57
76258;SPS30;65075;48.390;17.598;2023-12-22T00:32:01;0.40;0.40;0.38;0.35;2.79;2.79;2.79;2.77;2.39;0.57
76258;SPS30;65075;48.390;17.598;2023-12-22T00:34:28;0.46;0.45;0.44;0.39;3.15;3.15;3.15;3.13;2.69;0.58
76258;SPS30;65075;48.390;17.598;2023-12-22T00:36:53;0.45;0.44;0.43;0.39;3.09;3.09;3.09;3.06;2.64;0.57
76258;SPS30;65075;48.390;17.598;2023-12-22T00:39:20;0.58;0.57;0.55;0.50;3.97;3.97;3.97;3.94;3.40;0.57
76258;SPS30;65075;48.390;17.598;2023-12-22T00:41:49;0.44;0.43;0.42;0.38;3.01;3.01;3.01;2.98;2.57;0.57
76258;SPS30;65075;48.390;17.598;2023-12-22T00:44:14;0.51;0.50;0.49;0.44;3.51;3.51;3.51;3.48;3.01;0.57
76258;SPS30;65075;48.390;17.598;2023-12-22T00:46:41;0.47;0.46;0.45;0.41;3.25;3.25;3.24;3.22;2.78;0.57
76258;SPS30;65075;48.390;17.598;2023-12-22T00:49:08;0.53;0.52;0.51;0.46;3.64;3.63;3.63;3.60;3.10;0.58
76258;SPS30;65075;48.390;17.598;2023-12-22T00:51:33;0.45;0.44;0.42;0.38;3.03;3.03;3.03;3.00;2.58;0.58
76258;SPS30;65075;48.390;17.598;2023-12-22T00:54:00;0.52;0.51;0.49;0.44;3.48;3.48;3.48;3.45;2.96;0.58
76258;SPS30;65075;48.390;17.598;2023-12-22T00:56:25;0.56;0.55;0.53;0.47;3.78;3.78;3.77;3.74;3.22;0.58
76258;SPS30;65075;48.390;17.598;2023-12-22T00:58:52;0.50;0.49;0.47;0.42;3.36;3.36;3.35;3.32;2.86;0.58
76258;SPS30;65075;48.390;17.598;2023-12-22T01:01:21;0.42;0.41;0.40;0.36;2.84;2.84;2.83;2.81;2.41;0.58
76258;SPS30;65075;48.390;17.598;2023-12-22T01:03:48;0.57;0.56;0.54;0.48;3.84;3.84;3.84;3.80;3.27;0.57
76258;SPS30;65075;48.390;17.598;2023-12-22T01:06:15;0.63;0.62;0.60;0.53;4.27;4.27;4.26;4.22;3.63;0.57
76258;SPS30;65075;48.390;17.598;2023-12-22T01:08:42;0.43;0.42;0.40;0.36;2.90;2.90;2.89;2.87;2.47;0.56
76258;SPS30;65075;48.390;17.598;2023-12-22T01:11:09;0.51;0.50;0.48;0.44;3.48;3.48;3.48;3.45;2.97;0.57
76258;SPS30;65075;48.390;17.598;2023-12-22T01:13:36;0.58;0.57;0.55;0.49;3.95;3.95;3.94;3.91;3.37;0.57
76258;SPS30;65075;48.390;17.598;2023-12-22T01:16:03;0.55;0.53;0.51;0.46;3.70;3.70;3.69;3.66;3.15;0.57
76258;SPS30;65075;48.390;17.598;2023-12-22T01:18:29;0.63;0.62;0.59;0.53;4.25;4.25;4.24;4.21;3.62;0.58
76258;SPS30;65075;48.390;17.598;2023-12-22T01:20:58;0.49;0.48;0.46;0.41;3.26;3.26;3.26;3.23;2.77;0.58
76258;SPS30;65075;48.390;17.598;2023-12-22T01:23:24;0.63;0.62;0.59;0.53;4.20;4.19;4.19;4.15;3.56;0.58
76258;SPS30;65075;48.390;17.598;2023-12-22T01:25:51;0.57;0.56;0.53;0.47;3.76;3.76;3.75;3.71;3.19;0.58
76258;SPS30;65075;48.390;17.598;2023-12-22T01:28:18;0.49;0.48;0.46;0.41;3.23;3.23;3.23;3.20;2.74;0.57
76258;SPS30;65075;48.390;17.598;2023-12-22T01:30:45;0.53;0.52;0.49;0.43;3.47;3.47;3.46;3.43;2.94;0.57
76258;SPS30;65075;48.390;17.598;2023-12-22T01:33:10;0.61;0.60;0.57;0.50;3.97;3.97;3.97;3.92;3.36;0.58
76258;SPS30;65075;48.390;17.598;2023-12-22T01:35:37;0.53;0.51;0.48;0.42;3.39;3.39;3.38;3.34;2.86;0.58
76258;SPS30;65075;48.390;17.598;2023-12-22T01:38:04;0.69;0.67;0.63;0.55;4.38;4.38;4.37;4.32;3.69;0.58
76258;SPS30;65075;48.390;17.598;2023-12-22T01:40:30;0.88;0.85;0.80;0.70;5.60;5.59;5.59;5.51;4.71;0.58
76258;SPS30;65075;48.390;17.598;2023-12-22T01:42:57;0.85;0.82;0.77;0.67;5.34;5.34;5.33;5.26;4.48;0.58
76258;SPS30;65075;48.390;17.598;2023-12-22T01:45:23;0.74;0.72;0.67;0.58;4.61;4.60;4.60;4.53;3.86;0.59
76258;SPS30;65075;48.390;17.598;2023-12-22T01:47:50;0.95;0.92;0.85;0.73;5.85;5.84;5.83;5.74;4.88;0.59
76258;SPS30;65075;48.390;17.598;2023-12-22T01:50:17;0.89;0.85;0.79;0.67;5.33;5.33;5.32;5.23;4.43;0.60
76258;SPS30;65075;48.390;17.598;2023-12-22T01:52:44;1.04;1.00;0.91;0.77;6.11;6.11;6.09;5.98;5.04;0.62
76258;SPS30;65075;48.390;17.598;2023-12-22T01:55:10;2.00;1.92;1.75;1.47;11.73;11.73;11.70;11.48;9.68;0.63
76258;SPS30;65075;48.390;17.598;2023-12-22T01:57:40;1.76;1.70;1.58;1.35;10.82;10.81;10.79;10.63;9.03;0.61
76258;SPS30;65075;48.390;17.598;2023-12-22T02:00:08;0.89;0.87;0.81;0.71;5.66;5.66;5.65;5.57;4.75;0.59
76258;SPS30;65075;48.390;17.598;2023-12-22T02:02:36;0.91;0.88;0.82;0.70;5.61;5.61;5.60;5.52;4.69;0.60
76258;SPS30;65075;48.390;17.598;2023-12-22T02:05:12;1.18;1.14;1.05;0.89;7.09;7.08;7.07;6.95;5.88;0.62
76258;SPS30;65075;48.390;17.598;2023-12-22T02:07:42;1.03;0.98;0.90;0.75;5.98;5.98;5.97;5.85;4.93;0.63
76258;SPS30;65075;48.390;17.598;2023-12-22T02:10:10;1.24;1.18;1.07;0.88;7.06;7.06;7.04;6.89;5.78;0.64
76258;SPS30;65075;48.390;17.598;2023-12-22T02:12:37;1.47;1.40;1.25;1.01;8.07;8.07;8.04;7.85;6.55;0.64
76258;SPS30;65075;48.390;17.598;2023-12-22T02:15:04;1.33;1.26;1.13;0.91;7.30;7.30;7.28;7.10;5.93;0.64
76258;SPS30;65075;48.390;17.598;2023-12-22T02:20:50;1.55;1.47;1.29;1.02;8.18;8.17;8.14;7.92;6.56;0.66
76258;SPS30;65075;48.390;17.598;2023-12-22T02:23:17;1.28;1.21;1.06;0.83;6.63;6.63;6.60;6.41;5.29;0.67
76258;SPS30;65075;48.390;17.598;2023-12-22T02:25:44;1.43;1.33;1.15;0.88;7.05;7.04;7.01;6.78;5.55;0.70
76258;SPS30;65075;48.390;17.598;2023-12-22T02:28:13;1.50;1.40;1.20;0.91;7.29;7.29;7.26;7.00;5.71;0.71
76258;SPS30;65075;48.390;17.598;2023-12-22T02:31:02;1.73;1.61;1.39;1.06;8.43;8.42;8.39;8.10;6.61;0.70
76258;SPS30;65075;48.390;17.598;2023-12-22T02:33:44;1.43;1.33;1.13;0.84;6.71;6.70;6.67;6.42;5.20;0.72
76258;SPS30;65075;48.390;17.598;2023-12-22T02:36:14;1.24;1.15;0.97;0.71;5.70;5.69;5.66;5.44;4.38;0.72
76258;SPS30;65075;48.390;17.598;2023-12-22T02:38:43;1.06;0.98;0.82;0.60;4.79;4.78;4.76;4.56;3.66;0.72
76258;SPS30;65075;48.390;17.598;2023-12-22T02:41:13;0.90;0.83;0.69;0.50;4.01;4.01;3.99;3.82;3.06;0.73
76258;SPS30;65075;48.390;17.598;2023-12-22T02:43:40;0.91;0.84;0.70;0.51;4.05;4.05;4.02;3.85;3.08;0.74
76258;SPS30;65075;48.390;17.598;2023-12-22T02:46:16;0.93;0.86;0.72;0.52;4.19;4.19;4.16;3.99;3.20;0.73
76258;SPS30;65075;48.390;17.598;2023-12-22T02:48:42;0.83;0.77;0.65;0.48;3.82;3.82;3.80;3.65;2.94;0.72
76258;SPS30;65075;48.390;17.598;2023-12-22T02:51:09;0.94;0.87;0.74;0.55;4.40;4.40;4.38;4.21;3.41;0.71
76258;SPS30;65075;48.390;17.598;2023-12-22T02:53:37;0.96;0.90;0.76;0.57;4.58;4.57;4.55;4.38;3.56;0.71
76258;SPS30;65075;48.390;17.598;2023-12-22T02:56:03;1.02;0.95;0.81;0.61;4.85;4.84;4.82;4.64;3.77;0.71
76258;SPS30;65075;48.390;17.598;2023-12-22T02:58:31;1.11;1.04;0.89;0.67;5.36;5.36;5.34;5.15;4.19;0.71
76258;SPS30;65075;48.390;17.598;2023-12-22T03:00:58;1.55;1.45;1.25;0.96;7.63;7.62;7.59;7.34;6.00;0.70
76258;SPS30;65075;48.390;17.598;2023-12-22T03:03:25;3.94;3.73;3.31;2.66;21.24;21.23;21.16;20.62;17.16;0.66
76258;SPS30;65075;48.390;17.598;2023-12-22T03:05:52;2.24;2.16;1.98;1.68;13.38;13.37;13.34;13.11;11.09;0.63
76258;SPS30;65075;48.390;17.598;2023-12-22T03:08:18;1.50;1.44;1.33;1.12;8.96;8.96;8.94;8.79;7.43;0.63
76258;SPS30;65075;48.390;17.598;2023-12-22T03:10:47;1.64;1.57;1.43;1.20;9.54;9.54;9.51;9.33;7.86;0.64
76258;SPS30;65075;48.390;17.598;2023-12-22T03:13:13;1.46;1.39;1.25;1.02;8.18;8.17;8.15;7.97;6.67;0.65
76258;SPS30;65075;48.390;17.598;2023-12-22T03:15:41;2.13;2.02;1.81;1.47;11.70;11.70;11.66;11.38;9.50;0.66
76258;SPS30;65075;48.390;17.598;2023-12-22T03:18:08;5.14;4.90;4.44;3.66;29.24;29.23;29.15;28.54;23.96;0.62
76258;SPS30;65075;48.390;17.598;2023-12-22T03:20:35;2.43;2.33;2.13;1.79;14.32;14.31;14.28;14.02;11.84;0.62
76258;SPS30;65075;48.390;17.598;2023-12-22T03:23:01;5.10;4.92;4.55;3.88;30.96;30.95;30.88;30.39;25.77;0.62
76258;SPS30;65075;48.390;17.598;2023-12-22T03:25:29;2.27;2.18;2.00;1.68;13.45;13.44;13.41;13.17;11.13;0.64
76258;SPS30;65075;48.390;17.598;2023-12-22T03:27:56;2.11;2.01;1.82;1.49;11.92;11.92;11.88;11.63;9.75;0.66
76258;SPS30;65075;48.390;17.598;2023-12-22T03:30:22;2.44;2.30;2.03;1.60;12.80;12.79;12.75;12.39;10.26;0.69
76258;SPS30;65075;48.390;17.598;2023-12-22T03:32:50;2.48;2.30;1.96;1.47;11.71;11.70;11.65;11.21;9.10;0.73
76258;SPS30;65075;48.390;17.598;2023-12-22T03:35:17;2.61;2.41;2.02;1.46;11.67;11.67;11.60;11.11;8.90;0.75
76258;SPS30;65075;48.390;17.598;2023-12-22T03:37:44;3.47;3.20;2.68;1.93;15.44;15.43;15.35;14.68;11.75;0.76
76258;SPS30;65075;48.390;17.598;2023-12-22T03:40:14;3.64;3.36;2.82;2.05;16.37;16.36;16.27;15.58;12.50;0.75
76258;SPS30;65075;48.390;17.598;2023-12-22T03:42:40;2.83;2.62;2.21;1.61;12.88;12.87;12.80;12.28;9.87;0.74
76258;SPS30;65075;48.390;17.598;2023-12-22T03:45:08;3.29;3.03;2.50;1.76;14.07;14.06;13.98;13.31;10.55;0.75
76258;SPS30;65075;48.390;17.598;2023-12-22T03:47:34;3.44;3.16;2.59;1.79;14.32;14.31;14.22;13.50;10.63;0.75
76258;SPS30;65075;48.390;17.598;2023-12-22T03:50:01;3.38;3.09;2.53;1.75;13.96;13.94;13.86;13.14;10.33;0.77
76258;SPS30;65075;48.390;17.598;2023-12-22T03:52:29;3.33;3.04;2.46;1.66;13.28;13.27;13.18;12.45;9.69;0.79
76258;SPS30;65075;48.390;17.598;2023-12-22T03:54:54;3.41;3.09;2.46;1.61;12.84;12.83;12.73;11.94;9.15;0.82
76258;SPS30;65075;48.390;17.598;2023-12-22T03:57:21;3.70;3.35;2.65;1.71;13.68;13.66;13.55;12.67;9.65;0.84
76258;SPS30;65075;48.390;17.598;2023-12-22T03:59:48;3.28;2.98;2.41;1.62;12.90;12.89;12.80;12.07;9.37;0.80
76258;SPS30;65075;48.390;17.598;2023-12-22T04:02:14;3.45;3.13;2.51;1.67;13.31;13.30;13.20;12.42;9.58;0.81
76258;SPS30;65075;48.390;17.598;2023-12-22T04:04:42;3.28;2.98;2.40;1.60;12.74;12.73;12.64;11.90;9.20;0.80
76258;SPS30;65075;48.390;17.598;2023-12-22T04:07:09;4.67;4.27;3.49;2.40;19.19;19.17;19.05;18.06;14.18;0.78
76258;SPS30;65075;48.390;17.598;2023-12-22T04:09:38;3.20;2.96;2.48;1.79;14.30;14.29;14.21;13.60;10.90;0.76
76258;SPS30;65075;48.390;17.598;2023-12-22T04:12:05;4.06;3.78;3.23;2.42;19.36;19.35;19.26;18.55;15.08;0.73
76258;SPS30;65075;48.390;17.598;2023-12-22T04:14:34;2.86;2.66;2.25;1.66;13.29;13.28;13.21;12.70;10.26;0.74
76258;SPS30;65075;48.390;17.598;2023-12-22T04:17:00;2.91;2.68;2.22;1.57;12.53;12.52;12.44;11.86;9.42;0.77
76258;SPS30;65075;48.390;17.598;2023-12-22T04:19:28;2.91;2.66;2.16;1.48;11.84;11.83;11.75;11.13;8.72;0.78
76258;SPS30;65075;48.390;17.598;2023-12-22T04:21:55;3.12;2.84;2.30;1.55;12.39;12.38;12.29;11.60;9.02;0.78
76258;SPS30;65075;48.390;17.598;2023-12-22T04:24:21;3.28;2.99;2.44;1.66;13.28;13.27;13.18;12.47;9.75;0.76
76258;SPS30;65075;48.390;17.598;2023-12-22T04:26:48;4.09;3.75;3.08;2.14;17.06;17.05;16.94;16.09;12.68;0.76
76258;SPS30;65075;48.390;17.598;2023-12-22T04:29:15;3.38;3.09;2.53;1.75;14.00;13.99;13.90;13.19;10.38;0.75
76258;SPS30;65075;48.390;17.598;2023-12-22T04:31:40;3.13;2.87;2.35;1.62;12.94;12.93;12.84;12.18;9.57;0.74
76258;SPS30;65075;48.390;17.598;2023-12-22T04:34:08;3.90;3.60;2.99;2.14;17.05;17.03;16.93;16.17;12.88;0.71
76258;SPS30;65075;48.390;17.598;2023-12-22T04:36:35;5.92;5.54;4.79;3.66;29.23;29.21;29.08;28.11;23.00;0.67
76258;SPS30;65075;48.390;17.598;2023-12-22T04:39:02;2.96;2.79;2.44;1.90;15.20;15.19;15.14;14.68;12.11;0.67
76258;SPS30;65075;48.390;17.598;2023-12-22T04:41:29;2.95;2.74;2.32;1.72;13.71;13.70;13.63;13.10;10.58;0.71
76258;SPS30;65075;48.390;17.598;2023-12-22T04:43:55;3.42;3.16;2.63;1.88;15.01;15.00;14.92;14.25;11.36;0.72
76258;SPS30;65075;48.390;17.598;2023-12-22T04:46:22;3.39;3.12;2.59;1.83;14.63;14.61;14.53;13.85;11.00;0.73
76258;SPS30;65075;48.390;17.598;2023-12-22T04:48:49;3.47;3.19;2.64;1.87;14.92;14.91;14.82;14.13;11.22;0.72
76258;SPS30;65075;48.390;17.598;2023-12-22T04:51:16;3.86;3.58;3.02;2.21;17.66;17.65;17.56;16.85;13.57;0.70
76258;SPS30;65075;48.390;17.598;2023-12-22T04:53:43;2.84;2.63;2.21;1.62;12.93;12.92;12.85;12.32;9.91;0.71
76258;SPS30;65075;48.390;17.598;2023-12-22T04:56:08;4.25;3.92;3.26;2.32;18.53;18.52;18.41;17.57;13.99;0.71
76258;SPS30;65075;48.390;17.598;2023-12-22T04:58:35;8.52;7.99;6.94;5.36;42.76;42.74;42.57;41.21;33.83;0.67
76258;SPS30;65075;48.390;17.598;2023-12-22T05:01:03;3.51;3.30;2.90;2.27;18.13;18.12;18.05;17.53;14.47;0.67
76258;SPS30;65075;48.390;17.598;2023-12-22T05:03:29;3.05;2.84;2.43;1.82;14.55;14.54;14.47;13.94;11.33;0.71
76258;SPS30;65075;48.390;17.598;2023-12-22T05:05:56;2.85;2.64;2.22;1.62;12.90;12.89;12.83;12.29;9.87;0.73
76258;SPS30;65075;48.390;17.598;2023-12-22T05:08:22;3.25;2.98;2.44;1.69;13.50;13.49;13.40;12.72;10.01;0.77
76258;SPS30;65075;48.390;17.598;2023-12-22T05:10:48;3.18;2.88;2.31;1.52;12.14;12.12;12.03;11.30;8.70;0.80
76258;SPS30;65075;48.390;17.598;2023-12-22T05:13:15;2.95;2.69;2.17;1.46;11.68;11.67;11.58;10.93;8.50;0.78
76258;SPS30;65075;48.390;17.598;2023-12-22T05:15:42;2.91;2.65;2.14;1.43;11.43;11.42;11.34;10.69;8.29;0.79
76258;SPS30;65075;48.390;17.598;2023-12-22T05:18:09;3.29;2.98;2.37;1.54;12.29;12.27;12.18;11.41;8.71;0.81
76258;SPS30;65075;48.390;17.598;2023-12-22T05:20:36;3.05;2.75;2.18;1.40;11.17;11.16;11.07;10.34;7.86;0.82
76258;SPS30;65075;48.390;17.598;2023-12-22T05:23:03;3.26;2.94;2.30;1.44;11.50;11.48;11.38;10.58;7.94;0.83
76258;SPS30;65075;48.390;17.598;2023-12-22T05:25:30;2.80;2.52;1.98;1.25;9.96;9.95;9.86;9.18;6.91;0.82
76258;SPS30;65075;48.390;17.598;2023-12-22T05:27:57;3.90;3.51;2.73;1.70;13.57;13.55;13.43;12.46;9.30;0.81
76258;SPS30;65075;48.390;17.598;2023-12-22T05:30:24;3.73;3.36;2.63;1.65;13.20;13.18;13.07;12.15;9.13;0.81
76258;SPS30;65075;48.390;17.598;2023-12-22T05:32:50;3.79;3.41;2.68;1.69;13.50;13.49;13.37;12.45;9.37;0.80
76258;SPS30;65075;48.390;17.598;2023-12-22T05:35:18;3.91;3.54;2.82;1.84;14.70;14.69;14.57;13.67;10.47;0.76
76258;SPS30;65075;48.390;17.598;2023-12-22T05:37:43;3.83;3.47;2.76;1.81;14.42;14.41;14.30;13.41;10.28;0.78
76258;SPS30;65075;48.390;17.598;2023-12-22T05:40:10;3.67;3.31;2.59;1.63;12.97;12.96;12.84;11.94;8.97;0.80
76258;SPS30;65075;48.390;17.598;2023-12-22T05:42:38;4.51;4.10;3.28;2.17;17.32;17.30;17.17;16.14;12.43;0.76
76258;SPS30;65075;48.390;17.598;2023-12-22T05:45:07;5.32;4.91;4.09;2.93;23.39;23.37;23.24;22.20;17.72;0.72
76258;SPS30;65075;48.390;17.598;2023-12-22T05:47:34;3.56;3.30;2.77;2.03;16.17;16.16;16.07;15.41;12.39;0.73
76258;SPS30;65075;48.390;17.598;2023-12-22T05:50:00;3.44;3.18;2.68;1.96;15.64;15.63;15.55;14.91;11.99;0.72
76258;SPS30;65075;48.390;17.598;2023-12-22T05:52:29;2.95;2.74;2.32;1.72;13.69;13.68;13.62;13.08;10.57;0.71
76258;SPS30;65075;48.390;17.598;2023-12-22T05:54:56;3.00;2.77;2.32;1.69;13.46;13.45;13.38;12.81;10.28;0.72
76258;SPS30;65075;48.390;17.598;2023-12-22T05:57:21;3.55;3.29;2.77;2.02;16.12;16.11;16.03;15.36;12.35;0.71
76258;SPS30;65075;48.390;17.598;2023-12-22T05:59:48;3.53;3.28;2.79;2.08;16.57;16.56;16.48;15.85;12.84;0.70
76258;SPS30;65075;48.390;17.598;2023-12-22T06:02:15;3.29;3.05;2.57;1.89;15.07;15.06;14.99;14.38;11.58;0.70
76258;SPS30;65075;48.390;17.598;2023-12-22T06:04:42;3.92;3.61;2.98;2.10;16.79;16.77;16.67;15.88;12.59;0.74
76258;SPS30;65075;48.390;17.598;2023-12-22T06:07:10;4.12;3.76;3.04;2.05;16.40;16.39;16.27;15.37;11.96;0.78
76258;SPS30;65075;48.390;17.598;2023-12-22T06:09:37;3.66;3.34;2.70;1.82;14.56;14.55;14.45;13.64;10.61;0.76
76258;SPS30;65075;48.390;17.598;2023-12-22T06:12:04;3.68;3.36;2.73;1.87;14.89;14.88;14.78;13.98;10.93;0.75
76258;SPS30;65075;48.390;17.598;2023-12-22T06:14:31;4.35;3.96;3.18;2.12;16.94;16.92;16.80;15.82;12.23;0.76
76258;SPS30;65075;48.390;17.598;2023-12-22T06:16:58;4.53;4.10;3.26;2.12;16.90;16.88;16.75;15.69;11.99;0.79
76258;SPS30;65075;48.390;17.598;2023-12-22T06:19:25;4.22;3.82;3.01;1.93;15.38;15.36;15.24;14.23;10.79;0.80
76258;SPS30;65075;48.390;17.598;2023-12-22T06:21:55;3.85;3.48;2.75;1.76;14.02;14.00;13.89;12.96;9.83;0.80
76258;SPS30;65075;48.390;17.598;2023-12-22T06:24:21;4.52;4.05;3.13;1.91;15.28;15.26;15.11;13.96;10.33;0.84
76258;SPS30;65075;48.390;17.598;2023-12-22T06:26:49;4.38;3.94;3.08;1.92;15.32;15.30;15.16;14.08;10.54;0.83
76258;SPS30;65075;48.390;17.598;2023-12-22T06:29:16;4.36;3.93;3.08;1.95;15.54;15.52;15.38;14.32;10.78;0.82
76258;SPS30;65075;48.390;17.598;2023-12-22T06:31:43;4.20;3.79;2.98;1.89;15.09;15.07;14.94;13.92;10.51;0.81
76258;SPS30;65075;48.390;17.598;2023-12-22T06:34:10;3.99;3.59;2.81;1.75;13.98;13.96;13.84;12.85;9.62;0.81
76258;SPS30;65075;48.390;17.598;2023-12-22T06:36:36;4.47;4.02;3.15;1.97;15.71;15.69;15.55;14.45;10.83;0.81
76258;SPS30;65075;48.390;17.598;2023-12-22T06:39:03;3.74;3.39;2.69;1.75;13.96;13.94;13.83;12.96;9.90;0.79
76258;SPS30;65075;48.390;17.598;2023-12-22T06:41:30;4.38;3.98;3.20;2.13;17.03;17.01;16.89;15.91;12.30;0.77
76258;SPS30;65075;48.390;17.598;2023-12-22T06:43:59;3.57;3.24;2.58;1.69;13.53;13.52;13.41;12.59;9.67;0.78
76258;SPS30;65075;48.390;17.598;2023-12-22T06:46:26;4.32;3.90;3.08;1.98;15.81;15.79;15.66;14.63;11.11;0.79
76258;SPS30;65075;48.390;17.598;2023-12-22T06:48:55;4.31;3.89;3.08;1.98;15.77;15.75;15.62;14.60;11.09;0.79
76258;SPS30;65075;48.390;17.598;2023-12-22T06:51:29;4.50;4.07;3.23;2.09;16.70;16.68;16.55;15.49;11.81;0.79
76258;SPS30;65075;48.390;17.598;2023-12-22T06:53:57;5.40;4.96;4.09;2.87;22.92;22.90;22.76;21.66;17.14;0.72
76258;SPS30;65075;48.390;17.598;2023-12-22T06:56:34;5.41;5.04;4.32;3.26;26.01;25.99;25.87;24.95;20.31;0.68
76258;SPS30;65075;48.390;17.598;2023-12-22T06:59:02;4.46;4.14;3.51;2.61;20.82;20.81;20.71;19.91;16.11;0.70
76258;SPS30;65075;48.390;17.598;2023-12-22T07:01:31;5.58;5.18;4.41;3.28;26.17;26.15;26.03;25.04;20.27;0.71
76258;SPS30;65075;48.390;17.598;2023-12-22T07:04:02;5.38;5.03;4.32;3.28;26.20;26.18;26.06;25.16;20.53;0.70
76258;SPS30;65075;48.390;17.598;2023-12-22T07:06:31;4.10;3.82;3.28;2.49;19.85;19.83;19.74;19.05;15.53;0.71
76258;SPS30;65075;48.390;17.598;2023-12-22T07:11:43;4.96;4.66;4.07;3.18;25.39;25.37;25.28;24.52;20.20;0.66
76258;SPS30;65075;48.390;17.598;2023-12-22T07:14:16;3.67;3.42;2.94;2.22;17.74;17.72;17.65;17.02;13.87;0.69
76258;SPS30;65075;48.390;17.598;2023-12-22T07:16:43;4.82;4.48;3.79;2.80;22.34;22.32;22.21;21.34;17.23;0.71
76258;SPS30;65075;48.390;17.598;2023-12-22T07:19:11;4.06;3.78;3.24;2.45;19.54;19.53;19.44;18.75;15.27;0.69
76258;SPS30;65075;48.390;17.598;2023-12-22T07:21:42;4.27;3.96;3.36;2.49;19.84;19.83;19.73;18.96;15.32;0.71
76258;SPS30;65075;48.390;17.598;2023-12-22T07:24:09;3.50;3.22;2.67;1.89;15.13;15.11;15.03;14.33;11.39;0.74
76258;SPS30;65075;48.390;17.598;2023-12-22T07:26:36;3.72;3.43;2.86;2.06;16.44;16.43;16.34;15.61;12.48;0.74
76258;SPS30;65075;48.390;17.598;2023-12-22T07:29:02;4.55;4.22;3.58;2.65;21.18;21.17;21.06;20.25;16.37;0.71
76258;SPS30;65075;48.390;17.598;2023-12-22T07:31:29;3.94;3.67;3.14;2.36;18.85;18.83;18.75;18.07;14.69;0.69
76258;SPS30;65075;48.390;17.598;2023-12-22T07:33:59;4.26;3.98;3.42;2.59;20.72;20.70;20.61;19.90;16.24;0.69
76258;SPS30;65075;48.390;17.598;2023-12-22T07:36:26;4.92;4.59;3.95;3.00;23.92;23.91;23.80;22.98;18.75;0.69
76258;SPS30;65075;48.390;17.598;2023-12-22T07:38:52;4.68;4.39;3.82;2.96;23.64;23.63;23.54;22.80;18.74;0.67
76258;SPS30;65075;48.390;17.598;2023-12-22T07:41:21;4.44;4.15;3.59;2.75;21.99;21.97;21.88;21.16;17.33;0.70
76258;SPS30;65075;48.390;17.598;2023-12-22T07:43:47;5.02;4.68;4.01;3.03;24.17;24.15;24.04;23.19;18.88;0.70
76258;SPS30;65075;48.390;17.598;2023-12-22T07:46:17;4.20;3.93;3.40;2.60;20.79;20.78;20.69;20.01;16.38;0.68
76258;SPS30;65075;48.390;17.598;2023-12-22T07:48:45;3.77;3.52;3.03;2.30;18.38;18.37;18.29;17.66;14.42;0.69
76258;SPS30;65075;48.390;17.598;2023-12-22T07:51:10;4.50;4.21;3.64;2.79;22.30;22.28;22.19;21.46;17.58;0.69
76258;SPS30;65075;48.390;17.598;2023-12-22T07:53:36;4.75;4.49;3.99;3.20;25.53;25.52;25.44;24.78;20.61;0.67
76258;SPS30;65075;48.390;17.598;2023-12-22T07:56:06;4.18;3.98;3.59;2.95;23.57;23.56;23.50;22.99;19.27;0.65
76258;SPS30;65075;48.390;17.598;2023-12-22T07:58:33;3.71;3.52;3.15;2.55;20.38;20.37;20.31;19.82;16.54;0.65
76258;SPS30;65075;48.390;17.598;2023-12-22T08:00:59;3.64;3.46;3.10;2.52;20.12;20.11;20.05;19.58;16.35;0.65
76258;SPS30;65075;48.390;17.598;2023-12-22T08:03:24;4.13;3.93;3.55;2.92;23.34;23.33;23.27;22.77;19.10;0.63
76258;SPS30;65075;48.390;17.598;2023-12-22T08:05:50;3.34;3.20;2.92;2.44;19.51;19.50;19.45;19.08;16.09;0.62
76258;SPS30;65075;48.390;17.598;2023-12-22T08:08:15;3.71;3.56;3.28;2.77;22.14;22.13;22.08;21.70;18.35;0.60
76258;SPS30;65075;48.390;17.598;2023-12-22T08:10:41;4.09;3.94;3.64;3.11;24.81;24.80;24.75;24.35;20.65;0.60
76258;SPS30;65075;48.390;17.598;2023-12-22T08:13:07;3.67;3.53;3.26;2.78;22.18;22.17;22.13;21.76;18.45;0.62
76258;SPS30;65075;48.390;17.598;2023-12-22T08:15:33;3.07;2.94;2.70;2.27;18.09;18.08;18.04;17.71;14.95;0.62
76258;SPS30;65075;48.390;17.598;2023-12-22T08:17:58;2.86;2.74;2.49;2.08;16.63;16.63;16.59;16.26;13.70;0.60
76258;SPS30;65075;48.390;17.598;2023-12-22T08:20:24;3.98;3.80;3.45;2.86;22.80;22.79;22.73;22.26;18.70;0.60
76258;SPS30;65075;48.390;17.598;2023-12-22T08:22:49;9.20;8.91;8.32;7.19;57.44;57.42;57.31;56.51;48.11;0.60
76258;SPS30;65075;48.390;17.598;2023-12-22T08:25:16;4.64;4.52;4.29;3.78;30.21;30.20;30.15;29.82;25.54;0.61
76258;SPS30;65075;48.390;17.598;2023-12-22T08:27:48;4.81;4.67;4.39;3.83;30.56;30.55;30.50;30.11;25.70;0.61
76258;SPS30;65075;48.390;17.598;2023-12-22T08:30:13;4.68;4.50;4.16;3.53;28.21;28.20;28.14;27.68;23.44;0.63
76258;SPS30;65075;48.390;17.598;2023-12-22T08:32:39;5.34;5.18;4.85;4.21;33.63;33.62;33.56;33.11;28.23;0.60
76258;SPS30;65075;48.390;17.598;2023-12-22T08:35:08;6.20;6.08;5.84;5.25;41.92;41.91;41.87;41.51;35.74;0.56
76258;SPS30;65075;48.390;17.598;2023-12-22T08:37:34;3.61;3.55;3.44;3.12;24.89;24.89;24.86;24.69;21.30;0.54
76258;SPS30;65075;48.390;17.598;2023-12-22T08:39:59;3.00;2.93;2.81;2.51;20.05;20.04;20.02;19.83;17.05;0.56
76258;SPS30;65075;48.390;17.598;2023-12-22T08:42:25;2.47;2.40;2.26;1.97;15.76;15.75;15.73;15.53;13.26;0.59
76258;SPS30;65075;48.390;17.598;2023-12-22T08:44:54;2.76;2.68;2.51;2.19;17.49;17.48;17.45;17.22;14.70;0.58
76258;SPS30;65075;48.390;17.598;2023-12-22T08:47:19;4.44;4.32;4.07;3.57;28.52;28.51;28.47;28.13;24.05;0.59
76258;SPS30;65075;48.390;17.598;2023-12-22T08:49:45;3.03;2.95;2.81;2.48;19.83;19.82;19.80;19.58;16.79;0.59
76258;SPS30;65075;48.390;17.598;2023-12-22T08:52:10;4.34;4.25;4.08;3.67;29.28;29.27;29.24;28.99;24.95;0.57
76258;SPS30;65075;48.390;17.598;2023-12-22T08:54:36;3.99;3.94;3.83;3.49;27.89;27.88;27.86;27.69;23.93;0.55
76258;SPS30;65075;48.390;17.598;2023-12-22T08:57:02;3.42;3.36;3.24;2.92;23.32;23.32;23.29;23.11;19.91;0.57
76258;SPS30;65075;48.390;17.598;2023-12-22T08:59:30;3.37;3.30;3.16;2.83;22.61;22.60;22.58;22.38;19.24;0.57
76258;SPS30;65075;48.390;17.598;2023-12-22T09:01:57;5.37;5.30;5.16;4.72;37.72;37.71;37.69;37.46;32.41;0.55
76258;SPS30;65075;48.390;17.598;2023-12-22T09:04:24;4.14;4.09;3.99;3.66;29.23;29.23;29.21;29.04;25.14;0.55
76258;SPS30;65075;48.390;17.598;2023-12-22T09:06:50;3.67;3.63;3.55;3.27;26.12;26.12;26.10;25.96;22.49;0.54
76258;SPS30;65075;48.390;17.598;2023-12-22T09:09:16;3.79;3.74;3.64;3.34;26.63;26.63;26.61;26.45;22.89;0.53
76258;SPS30;65075;48.390;17.598;2023-12-22T09:11:44;3.64;3.58;3.46;3.14;25.04;25.03;25.01;24.82;21.41;0.55
76258;SPS30;65075;48.390;17.598;2023-12-22T09:14:09;2.43;2.39;2.30;2.08;16.63;16.63;16.61;16.49;14.22;0.54
76258;SPS30;65075;48.390;17.598;2023-12-22T09:16:36;2.26;2.22;2.14;1.92;15.34;15.34;15.32;15.19;13.08;0.55
76258;SPS30;65075;48.390;17.598;2023-12-22T09:19:02;2.90;2.82;2.66;2.34;18.65;18.64;18.61;18.39;15.73;0.58
76258;SPS30;65075;48.390;17.598;2023-12-22T09:21:28;4.88;4.75;4.49;3.94;31.47;31.46;31.41;31.04;26.55;0.59